createdAt,value
2019-03-29T00:01:38.306Z,5.73
2019-03-29T00:04:06.379Z,5.75
2019-03-29T00:06:34.502Z,5.63
2019-03-29T00:09:03.067Z,5.63
2019-03-29T00:11:31.175Z,5.59
2019-03-29T00:13:59.600Z,5.55
2019-03-29T00:16:27.955Z,5.53
2019-03-29T00:18:57.808Z,5.42
2019-03-29T00:21:26.607Z,5.36
2019-03-29T00:24:06.135Z,5.36
2019-03-29T00:26:25.589Z,5.36
2019-03-29T00:28:54.193Z,5.36
2019-03-29T00:31:22.686Z,5.30
2019-03-29T00:33:51.041Z,5.23
2019-03-29T00:36:18.939Z,5.16
2019-03-29T00:38:47.000Z,5.16
2019-03-29T00:41:15.393Z,5.11
2019-03-29T00:43:44.603Z,4.97
2019-03-29T00:46:12.306Z,4.94
2019-03-29T00:48:40.928Z,4.92
2019-03-29T00:51:10.199Z,4.92
2019-03-29T00:53:37.983Z,4.90
2019-03-29T00:56:06.491Z,4.84
2019-03-29T00:58:34.966Z,4.79
2019-03-29T01:01:03.575Z,4.83
2019-03-29T01:03:32.349Z,4.81
2019-03-29T01:06:00.262Z,4.84
2019-03-29T01:08:28.800Z,4.85
2019-03-29T01:10:58.390Z,4.90
2019-03-29T01:13:26.286Z,4.79
2019-03-29T01:15:54.301Z,4.70
2019-03-29T01:18:22.279Z,4.70
2019-03-29T01:20:50.363Z,4.55
2019-03-29T01:23:19.051Z,4.53
2019-03-29T01:25:46.974Z,4.62
2019-03-29T01:28:17.416Z,4.65
2019-03-29T01:30:45.475Z,4.63
2019-03-29T01:33:13.651Z,4.61
2019-03-29T01:35:41.388Z,4.58
2019-03-29T01:38:21.154Z,4.49
2019-03-29T01:40:40.439Z,4.47
2019-03-29T01:43:08.238Z,4.45
2019-03-29T01:45:36.627Z,4.47
2019-03-29T01:48:04.942Z,4.37
2019-03-29T01:50:33.044Z,4.35
2019-03-29T01:53:01.136Z,4.32
2019-03-29T01:55:29.159Z,4.36
2019-03-29T01:57:57.255Z,4.31
2019-03-29T02:00:32.268Z,4.31
2019-03-29T02:03:01.468Z,4.20
2019-03-29T02:05:29.972Z,4.18
2019-03-29T02:07:58.675Z,4.20
2019-03-29T02:10:28.606Z,4.18
2019-03-29T02:12:57.609Z,4.15
2019-03-29T02:15:25.491Z,4.17
2019-03-29T02:17:54.107Z,4.12
2019-03-29T02:20:23.851Z,4.16
2019-03-29T02:22:51.803Z,4.09
2019-03-29T02:25:20.483Z,4.04
2019-03-29T02:27:48.556Z,3.96
2019-03-29T02:30:17.266Z,4.03
2019-03-29T02:32:45.007Z,3.99
2019-03-29T02:35:13.278Z,3.93
2019-03-29T02:37:42.448Z,4.03
2019-03-29T02:40:10.400Z,4.06
2019-03-29T02:42:39.456Z,4.05
2019-03-29T02:45:08.329Z,3.97
2019-03-29T02:47:36.203Z,3.99
2019-03-29T02:50:05.188Z,3.96
2019-03-29T02:52:33.788Z,3.92
2019-03-29T02:55:02.667Z,3.84
2019-03-29T02:57:30.717Z,3.85
2019-03-29T02:59:58.906Z,3.91
2019-03-29T03:02:27.277Z,3.98
2019-03-29T03:04:55.084Z,4.05
2019-03-29T03:07:24.420Z,3.99
2019-03-29T03:09:52.636Z,4.09
2019-03-29T03:12:20.563Z,4.09
2019-03-29T03:14:49.481Z,4.03
2019-03-29T03:17:18.280Z,4.01
2019-03-29T03:19:46.304Z,4.07
2019-03-29T03:22:14.193Z,3.97
2019-03-29T03:24:44.827Z,3.97
2019-03-29T03:27:13.206Z,3.88
2019-03-29T03:29:48.149Z,3.85
2019-03-29T03:32:15.743Z,3.83
2019-03-29T03:34:44.643Z,3.76
2019-03-29T03:37:13.774Z,3.78
2019-03-29T03:39:43.249Z,3.78
2019-03-29T03:42:11.022Z,3.68
2019-03-29T03:44:39.649Z,3.69
2019-03-29T03:47:07.719Z,3.74
2019-03-29T03:49:35.626Z,3.74
2019-03-29T03:52:04.189Z,3.74
2019-03-29T03:54:32.123Z,3.69
2019-03-29T03:57:00.127Z,3.58
2019-03-29T03:59:29.386Z,3.46
2019-03-29T04:01:57.563Z,3.47
2019-03-29T04:04:26.476Z,3.41
2019-03-29T04:06:56.259Z,3.43
2019-03-29T04:09:24.131Z,3.48
2019-03-29T04:11:52.890Z,3.51
2019-03-29T04:14:22.797Z,3.55
2019-03-29T04:16:51.178Z,3.49
2019-03-29T04:19:20.754Z,3.46
2019-03-29T04:21:49.190Z,3.39
2019-03-29T04:24:17.100Z,3.28
2019-03-29T04:26:46.023Z,3.25
2019-03-29T04:29:14.121Z,3.16
2019-03-29T04:31:43.054Z,3.26
2019-03-29T04:34:10.925Z,3.18
2019-03-29T04:36:39.493Z,3.14
2019-03-29T04:39:09.142Z,3.12
2019-03-29T04:41:37.334Z,3.13
2019-03-29T04:44:05.390Z,3.18
2019-03-29T04:46:33.400Z,3.16
2019-03-29T04:49:01.495Z,3.17
2019-03-29T04:51:29.807Z,3.14
2019-03-29T04:53:57.775Z,3.21
2019-03-29T04:56:26.416Z,3.15
2019-03-29T04:58:55.328Z,3.20
2019-03-29T05:01:23.435Z,3.17
2019-03-29T05:03:51.970Z,3.17
2019-03-29T05:06:19.996Z,3.13
2019-03-29T05:08:48.197Z,3.21
2019-03-29T05:11:16.039Z,3.19
2019-03-29T05:13:44.145Z,3.23
2019-03-29T05:16:14.286Z,3.20
2019-03-29T05:18:42.414Z,3.26
2019-03-29T05:21:10.692Z,3.34
2019-03-29T05:23:38.911Z,3.35
2019-03-29T05:26:07.175Z,3.44
2019-03-29T05:28:36.001Z,3.52
2019-03-29T05:31:05.102Z,3.56
2019-03-29T05:33:33.011Z,3.56
2019-03-29T05:36:01.082Z,3.65
2019-03-29T05:38:29.386Z,3.64
2019-03-29T05:40:57.492Z,3.69
2019-03-29T05:43:25.943Z,3.78
2019-03-29T05:45:54.029Z,3.87
2019-03-29T05:48:22.165Z,3.99
2019-03-29T05:50:50.530Z,4.04
2019-03-29T05:53:18.490Z,4.16
2019-03-29T05:55:48.293Z,4.28
2019-03-29T05:58:16.336Z,4.35
2019-03-29T06:00:46.959Z,4.47
2019-03-29T06:03:15.361Z,4.47
2019-03-29T06:05:43.958Z,4.50
2019-03-29T06:08:11.762Z,4.54
2019-03-29T06:10:48.874Z,4.55
2019-03-29T06:13:10.743Z,4.60
2019-03-29T06:15:38.666Z,4.62
2019-03-29T06:18:07.203Z,4.66
2019-03-29T06:20:35.906Z,4.81
2019-03-29T06:23:05.803Z,4.84
2019-03-29T06:25:35.554Z,4.99
2019-03-29T06:28:03.879Z,5.04
2019-03-29T06:30:32.413Z,5.18
2019-03-29T06:33:01.320Z,5.22
2019-03-29T06:35:36.415Z,5.41
2019-03-29T06:38:05.865Z,5.47
2019-03-29T06:40:34.134Z,5.60
2019-03-29T06:43:02.182Z,5.72
2019-03-29T06:45:30.155Z,5.74
2019-03-29T06:48:01.163Z,5.83
2019-03-29T06:50:29.980Z,5.99
2019-03-29T06:52:58.004Z,6.15
2019-03-29T06:55:26.755Z,6.20
2019-03-29T06:57:54.814Z,6.26
2019-03-29T07:00:24.502Z,6.44
2019-03-29T07:02:53.498Z,6.54
2019-03-29T07:05:21.833Z,6.73
2019-03-29T07:07:49.872Z,6.74
2019-03-29T07:10:18.786Z,7.00
2019-03-29T07:12:47.760Z,7.08
2019-03-29T07:15:17.556Z,7.04
2019-03-29T07:17:45.668Z,7.15
2019-03-29T07:20:14.160Z,7.13
2019-03-29T07:22:42.579Z,7.42
2019-03-29T07:25:10.795Z,7.66
2019-03-29T07:27:46.663Z,7.82
2019-03-29T07:30:11.352Z,8.09
2019-03-29T07:32:41.543Z,8.20
2019-03-29T07:35:09.733Z,8.53
2019-03-29T07:37:38.280Z,8.48
2019-03-29T07:40:06.816Z,8.36
2019-03-29T07:42:35.399Z,8.75
2019-03-29T07:45:03.959Z,8.88
2019-03-29T07:47:32.400Z,8.97
2019-03-29T07:50:00.411Z,9.16
2019-03-29T07:52:28.190Z,9.08
2019-03-29T07:54:56.588Z,9.06
2019-03-29T07:57:24.595Z,9.33
2019-03-29T07:59:52.691Z,9.25
2019-03-29T08:02:21.120Z,9.74
2019-03-29T08:04:51.958Z,9.50
2019-03-29T08:07:27.156Z,9.12
2019-03-29T08:09:50.200Z,9.11
2019-03-29T08:12:17.987Z,9.88
2019-03-29T08:14:46.650Z,9.51
2019-03-29T08:17:15.594Z,9.95
2019-03-29T08:19:43.976Z,10.21
2019-03-29T08:22:12.064Z,10.10
2019-03-29T08:24:39.815Z,10.27
2019-03-29T08:27:08.042Z,10.22
2019-03-29T08:29:36.452Z,10.12
2019-03-29T08:32:04.671Z,10.27
2019-03-29T08:34:35.767Z,10.82
2019-03-29T08:37:03.258Z,10.17
2019-03-29T08:39:31.865Z,10.11
2019-03-29T08:42:00.878Z,10.22
2019-03-29T08:44:28.729Z,10.09
2019-03-29T08:46:57.313Z,10.02
2019-03-29T08:49:25.793Z,10.03
2019-03-29T08:51:54.396Z,10.18
2019-03-29T08:54:24.767Z,10.13
2019-03-29T08:56:53.808Z,10.32
2019-03-29T08:59:22.043Z,10.32
2019-03-29T09:01:50.144Z,10.50
2019-03-29T09:04:21.499Z,10.31
2019-03-29T09:06:53.652Z,10.46
2019-03-29T09:09:18.782Z,10.37
2019-03-29T09:11:47.047Z,10.37
2019-03-29T09:14:16.847Z,10.55
2019-03-29T09:16:45.165Z,10.72
2019-03-29T09:19:15.062Z,11.00
2019-03-29T09:21:45.147Z,11.28
2019-03-29T09:24:21.970Z,11.34
2019-03-29T09:26:42.762Z,11.41
2019-03-29T09:29:10.851Z,11.73
2019-03-29T09:31:39.440Z,12.07
2019-03-29T09:34:08.347Z,11.69
2019-03-29T09:36:36.562Z,11.51
2019-03-29T09:39:06.048Z,11.46
2019-03-29T09:41:35.714Z,11.50
2019-03-29T09:44:04.777Z,11.59
2019-03-29T09:46:32.749Z,11.59
2019-03-29T09:49:01.080Z,11.50
2019-03-29T09:51:28.995Z,12.17
2019-03-29T09:53:58.000Z,12.38
2019-03-29T09:56:38.539Z,12.13
2019-03-29T09:58:59.207Z,12.33
2019-03-29T10:01:28.664Z,12.39
2019-03-29T10:03:57.079Z,12.19
2019-03-29T10:06:25.102Z,12.45
2019-03-29T10:08:53.584Z,12.68
2019-03-29T10:11:22.348Z,12.69
2019-03-29T10:13:50.845Z,12.40
2019-03-29T10:16:21.526Z,12.43
2019-03-29T10:18:49.383Z,12.48
2019-03-29T10:21:17.758Z,12.63
2019-03-29T10:23:45.592Z,12.42
2019-03-29T10:26:15.068Z,12.37
2019-03-29T10:28:44.318Z,12.39
2019-03-29T10:31:12.746Z,12.27
2019-03-29T10:33:41.495Z,12.40
2019-03-29T10:36:09.799Z,12.28
2019-03-29T10:38:38.847Z,12.32
2019-03-29T10:41:06.887Z,12.19
2019-03-29T10:43:35.250Z,12.09
2019-03-29T10:46:03.255Z,12.38
2019-03-29T10:48:31.255Z,12.34
2019-03-29T10:50:59.234Z,12.73
2019-03-29T10:53:29.064Z,12.88
2019-03-29T10:55:57.364Z,12.83
2019-03-29T10:58:25.606Z,12.95
2019-03-29T11:00:53.751Z,12.27
2019-03-29T11:03:21.986Z,12.30
2019-03-29T11:05:49.915Z,12.64
2019-03-29T11:08:18.213Z,12.68
2019-03-29T11:10:46.480Z,12.36
2019-03-29T11:13:15.557Z,12.75
2019-03-29T11:15:44.304Z,12.79
2019-03-29T11:18:12.222Z,12.57
2019-03-29T11:20:40.581Z,12.91
2019-03-29T11:23:08.963Z,12.72
2019-03-29T11:25:36.978Z,12.61
2019-03-29T11:28:04.802Z,12.63
2019-03-29T11:30:42.016Z,12.65
2019-03-29T11:33:04.666Z,12.90
2019-03-29T11:35:33.080Z,12.85
2019-03-29T11:38:01.756Z,12.92
2019-03-29T11:40:29.890Z,12.91
2019-03-29T11:42:58.092Z,13.09
2019-03-29T11:45:26.575Z,13.16
2019-03-29T11:48:07.279Z,13.35
2019-03-29T11:50:25.104Z,13.05
2019-03-29T11:52:53.843Z,13.11
2019-03-29T11:55:21.943Z,13.03
2019-03-29T11:57:51.657Z,13.02
2019-03-29T12:00:35.386Z,13.55
2019-03-29T12:03:03.378Z,13.38
2019-03-29T12:05:31.910Z,12.94
2019-03-29T12:08:01.923Z,12.96
2019-03-29T12:10:31.099Z,13.39
2019-03-29T12:12:59.747Z,13.48
2019-03-29T12:15:29.385Z,13.18
2019-03-29T12:17:58.446Z,13.37
2019-03-29T12:20:27.325Z,13.46
2019-03-29T12:22:55.202Z,13.45
2019-03-29T12:25:23.706Z,13.36
2019-03-29T12:27:52.068Z,13.35
2019-03-29T12:30:31.508Z,13.39
2019-03-29T12:32:50.927Z,13.08
2019-03-29T12:35:18.881Z,13.56
2019-03-29T12:37:47.371Z,13.42
2019-03-29T12:40:15.695Z,13.61
2019-03-29T12:42:43.482Z,13.59
2019-03-29T12:45:12.763Z,13.44
2019-03-29T12:47:40.509Z,13.32
2019-03-29T12:50:09.615Z,13.34
2019-03-29T12:52:38.305Z,13.54
2019-03-29T12:55:06.475Z,13.45
2019-03-29T12:57:34.513Z,13.45
2019-03-29T13:00:02.277Z,13.35
2019-03-29T13:02:34.394Z,13.52
2019-03-29T13:05:00.445Z,13.58
2019-03-29T13:07:28.816Z,13.47
2019-03-29T13:09:58.317Z,13.59
2019-03-29T13:12:26.481Z,13.96
2019-03-29T13:14:54.552Z,13.68
2019-03-29T13:17:22.762Z,13.76
2019-03-29T13:19:51.289Z,13.65
2019-03-29T13:22:19.835Z,13.59
2019-03-29T13:24:49.198Z,13.59
2019-03-29T13:27:17.170Z,13.98
2019-03-29T13:29:46.289Z,13.94
2019-03-29T13:32:14.359Z,13.76
2019-03-29T13:34:42.993Z,13.91
2019-03-29T13:37:11.899Z,13.86
2019-03-29T13:39:40.052Z,13.99
2019-03-29T13:42:08.518Z,13.96
2019-03-29T13:44:36.949Z,14.06
2019-03-29T13:47:05.149Z,13.83
2019-03-29T13:49:33.280Z,13.99
2019-03-29T13:52:01.651Z,14.27
2019-03-29T13:54:29.425Z,14.23
2019-03-29T13:56:57.714Z,14.45
2019-03-29T13:59:26.653Z,14.10
2019-03-29T14:01:55.416Z,13.86
2019-03-29T14:04:24.598Z,14.06
2019-03-29T14:06:52.329Z,13.85
2019-03-29T14:09:21.408Z,13.90
2019-03-29T14:11:50.347Z,14.03
2019-03-29T14:14:18.191Z,14.08
2019-03-29T14:16:46.315Z,14.22
2019-03-29T14:19:14.188Z,14.33
2019-03-29T14:21:42.991Z,14.35
2019-03-29T14:24:11.356Z,14.33
2019-03-29T14:26:39.838Z,14.24
2019-03-29T14:29:09.986Z,14.27
2019-03-29T14:31:37.883Z,14.33
2019-03-29T14:34:07.061Z,14.40
2019-03-29T14:36:35.539Z,14.43
2019-03-29T14:39:05.768Z,14.46
2019-03-29T14:41:34.022Z,14.25
2019-03-29T14:44:02.046Z,14.31
2019-03-29T14:46:30.919Z,14.37
2019-03-29T14:48:59.099Z,14.45
2019-03-29T14:51:28.119Z,14.33
2019-03-29T14:53:57.527Z,14.36
2019-03-29T14:56:26.332Z,14.47
2019-03-29T14:58:54.391Z,14.42
2019-03-29T15:01:22.178Z,14.56
2019-03-29T15:03:50.089Z,14.29
2019-03-29T15:06:18.580Z,14.25
2019-03-29T15:08:49.903Z,14.51
2019-03-29T15:11:22.561Z,14.45
2019-03-29T15:13:48.582Z,14.37
2019-03-29T15:16:16.854Z,14.32
2019-03-29T15:18:46.005Z,14.14
2019-03-29T15:21:14.035Z,14.08
2019-03-29T15:23:42.746Z,14.38
2019-03-29T15:26:11.032Z,14.38
2019-03-29T15:28:39.667Z,14.41
2019-03-29T15:31:08.573Z,14.32
2019-03-29T15:33:37.386Z,14.42
2019-03-29T15:36:06.381Z,14.41
2019-03-29T15:38:34.865Z,14.44
2019-03-29T15:41:03.528Z,14.40
2019-03-29T15:43:31.711Z,14.30
2019-03-29T15:46:00.163Z,14.25
2019-03-29T15:48:28.367Z,14.19
2019-03-29T15:50:56.821Z,14.18
2019-03-29T15:53:25.136Z,14.12
2019-03-29T15:55:52.997Z,14.08
2019-03-29T15:58:22.266Z,14.23
2019-03-29T16:00:51.056Z,14.33
2019-03-29T16:03:19.184Z,14.26
2019-03-29T16:05:48.622Z,14.09
2019-03-29T16:08:16.891Z,14.02
2019-03-29T16:10:45.074Z,14.00
2019-03-29T16:13:15.618Z,13.96
2019-03-29T16:19:26.438Z,13.82
2019-03-29T16:21:54.223Z,13.77
2019-03-29T16:24:22.886Z,13.71
2019-03-29T16:26:51.047Z,13.69
2019-03-29T16:29:19.952Z,13.63
2019-03-29T16:31:48.106Z,13.52
2019-03-29T16:34:16.348Z,13.47
2019-03-29T16:36:44.223Z,13.42
2019-03-29T16:39:12.471Z,13.35
2019-03-29T16:41:40.250Z,13.20
2019-03-29T16:44:08.385Z,13.22
2019-03-29T16:46:36.540Z,13.03
2019-03-29T16:49:07.965Z,13.04
2019-03-29T16:51:36.254Z,12.91
2019-03-29T16:54:05.832Z,12.77
2019-03-29T16:56:34.311Z,12.73
2019-03-29T16:59:02.544Z,12.58
2019-03-29T17:01:30.513Z,12.47
2019-03-29T17:03:59.648Z,12.35
2019-03-29T17:06:27.835Z,12.21
2019-03-29T17:08:55.962Z,12.19
2019-03-29T17:11:26.375Z,12.03
2019-03-29T17:13:56.185Z,11.88
2019-03-29T17:16:30.177Z,11.87
2019-03-29T17:18:55.160Z,11.75
2019-03-29T17:21:25.692Z,11.83
2019-03-29T17:23:53.792Z,11.86
2019-03-29T17:26:22.232Z,11.67
2019-03-29T17:28:52.326Z,11.60
2019-03-29T17:31:20.944Z,11.41
2019-03-29T17:33:48.755Z,11.05
2019-03-29T17:36:19.942Z,10.81
2019-03-29T17:38:48.525Z,10.70
2019-03-29T17:41:16.619Z,10.50
2019-03-29T17:43:45.071Z,10.33
2019-03-29T17:46:16.673Z,10.25
2019-03-29T17:48:45.593Z,10.20
2019-03-29T17:51:17.896Z,10.08
2019-03-29T17:53:46.021Z,9.98
2019-03-29T17:56:13.891Z,9.96
2019-03-29T17:58:42.734Z,9.85
2019-03-29T18:01:10.796Z,9.85
2019-03-29T18:03:38.575Z,9.69
2019-03-29T18:06:07.784Z,9.71
2019-03-29T18:08:36.507Z,9.66
2019-03-29T18:11:05.462Z,9.59
2019-03-29T18:13:35.502Z,9.60
2019-03-29T18:16:04.177Z,9.53
2019-03-29T18:18:32.334Z,9.51
2019-03-29T18:21:00.374Z,9.36
2019-03-29T18:23:28.663Z,9.37
2019-03-29T18:25:56.739Z,9.40
2019-03-29T18:28:25.108Z,9.22
2019-03-29T18:30:52.947Z,9.24
2019-03-29T18:33:21.341Z,9.16
2019-03-29T18:35:49.120Z,8.91
2019-03-29T18:38:18.620Z,8.83
2019-03-29T18:40:47.100Z,8.83
2019-03-29T18:43:15.067Z,8.83
2019-03-29T18:45:43.174Z,8.84
2019-03-29T18:48:11.929Z,8.72
2019-03-29T18:50:41.545Z,8.71
2019-03-29T18:53:09.822Z,8.82
2019-03-29T18:55:38.287Z,8.72
2019-03-29T18:58:07.105Z,8.84
2019-03-29T19:00:35.696Z,8.59
2019-03-29T19:03:03.626Z,8.42
2019-03-29T19:05:31.919Z,8.37
2019-03-29T19:08:00.028Z,8.33
2019-03-29T19:10:30.531Z,8.17
2019-03-29T19:12:58.501Z,8.19
2019-03-29T19:15:26.606Z,8.07
2019-03-29T19:17:55.740Z,7.82
2019-03-29T19:20:27.978Z,7.78
2019-03-29T19:22:54.564Z,7.80
2019-03-29T19:25:23.509Z,7.84
2019-03-29T19:27:51.694Z,7.70
2019-03-29T19:30:20.394Z,7.65
2019-03-29T19:32:48.198Z,7.73
2019-03-29T19:35:16.976Z,7.43
2019-03-29T19:37:46.203Z,7.38
2019-03-29T19:40:14.489Z,6.63
2019-03-29T19:42:42.424Z,6.11
2019-03-29T19:45:11.002Z,5.80
2019-03-29T19:47:39.153Z,5.67
2019-03-29T19:50:07.453Z,5.43
2019-03-29T19:52:36.546Z,5.29
2019-03-29T19:55:07.029Z,5.24
2019-03-29T19:57:35.889Z,5.26
2019-03-29T20:00:06.523Z,5.27
2019-03-29T20:02:34.263Z,5.22
2019-03-29T20:05:02.184Z,5.18
2019-03-29T20:07:33.896Z,5.29
2019-03-29T20:10:05.979Z,5.32
2019-03-29T20:12:36.021Z,5.33
2019-03-29T20:15:06.688Z,5.27
2019-03-29T20:20:22.338Z,4.85
2019-03-29T20:22:51.740Z,4.73
2019-03-29T20:25:20.630Z,4.62
2019-03-29T20:27:49.415Z,4.52
2019-03-29T20:30:18.230Z,4.48
2019-03-29T20:32:47.170Z,4.73
2019-03-29T20:35:15.636Z,4.84
2019-03-29T20:37:44.618Z,4.74
2019-03-29T20:40:13.860Z,4.47
2019-03-29T20:42:42.988Z,4.25
2019-03-29T20:45:11.484Z,4.19
2019-03-29T20:47:42.214Z,4.17
2019-03-29T20:50:10.755Z,4.05
2019-03-29T20:52:40.566Z,4.02
2019-03-29T20:55:11.994Z,4.13
2019-03-29T20:57:40.024Z,4.15
2019-03-29T21:00:09.316Z,4.11
2019-03-29T21:02:37.443Z,4.10
2019-03-29T21:05:05.905Z,4.05
2019-03-29T21:07:34.408Z,4.07
2019-03-29T21:10:03.168Z,3.92
2019-03-29T21:12:31.906Z,3.87
2019-03-29T21:15:00.257Z,3.82
2019-03-29T21:17:28.409Z,3.67
2019-03-29T21:19:56.555Z,3.59
2019-03-29T21:22:25.180Z,3.53
2019-03-29T21:24:53.314Z,3.57
2019-03-29T21:27:21.608Z,3.56
2019-03-29T21:29:50.170Z,3.47
2019-03-29T21:32:18.736Z,3.34
2019-03-29T21:34:48.376Z,3.29
2019-03-29T21:37:16.823Z,3.20
2019-03-29T21:39:44.946Z,3.19
2019-03-29T21:42:13.572Z,3.14
2019-03-29T21:44:45.252Z,3.08
2019-03-29T21:47:14.001Z,2.98
2019-03-29T21:49:42.540Z,2.92
2019-03-29T21:52:11.929Z,2.88
2019-03-29T21:54:40.562Z,2.81
2019-03-29T21:57:09.142Z,2.70
2019-03-29T21:59:37.768Z,2.75
2019-03-29T22:02:07.917Z,2.87
2019-03-29T22:04:48.367Z,2.96
2019-03-29T22:07:16.411Z,2.89
2019-03-29T22:09:52.645Z,2.79
2019-03-29T22:12:20.708Z,2.68
2019-03-29T22:14:48.913Z,2.60
2019-03-29T22:17:17.540Z,2.59
2019-03-29T22:19:45.600Z,2.44
2019-03-29T22:22:15.062Z,2.28
2019-03-29T22:24:44.082Z,2.26
2019-03-29T22:27:14.009Z,2.25
2019-03-29T22:29:42.204Z,2.16
2019-03-29T22:32:11.015Z,2.15
2019-03-29T22:34:40.727Z,2.06
2019-03-29T22:37:10.396Z,2.09
2019-03-29T22:39:38.562Z,1.98
2019-03-29T22:42:07.676Z,1.99
2019-03-29T22:44:37.285Z,2.18
2019-03-29T22:47:05.566Z,2.19
2019-03-29T22:49:33.993Z,2.17
2019-03-29T22:52:02.816Z,2.23
2019-03-29T22:54:31.287Z,2.09
2019-03-29T22:56:59.433Z,2.04
2019-03-29T22:59:27.847Z,1.95
2019-03-29T23:01:56.357Z,1.82
2019-03-29T23:04:25.007Z,1.73
2019-03-29T23:06:53.815Z,1.82
2019-03-29T23:09:22.394Z,1.88
2019-03-29T23:11:52.331Z,1.87
2019-03-29T23:14:22.271Z,1.79
2019-03-29T23:16:50.410Z,1.82
2019-03-29T23:19:18.571Z,1.83
2019-03-29T23:21:46.754Z,1.94
2019-03-29T23:24:15.302Z,1.81
2019-03-29T23:26:43.863Z,1.87
2019-03-29T23:29:11.959Z,1.64
2019-03-29T23:31:40.451Z,1.48
2019-03-29T23:34:08.628Z,1.36
2019-03-29T23:36:39.169Z,1.37
2019-03-29T23:39:07.320Z,1.34
2019-03-29T23:41:37.026Z,1.13
2019-03-29T23:44:06.022Z,1.04
2019-03-29T23:46:34.985Z,0.95
2019-03-29T23:49:04.453Z,0.91
2019-03-29T23:51:32.566Z,0.78
2019-03-29T23:54:00.959Z,0.60
2019-03-29T23:56:29.055Z,0.56
2019-03-29T23:58:57.461Z,0.51
